Time;durP1;ratioP1;P1;durP2;ratioP2;P2;SDS_P1;SDS_P2;PMS_P1;PMS_P2;Temp;Humidity;BMP_temperature;BMP_pressure;BME280_temperature;BME280_humidity;BME280_pressure;Samples;Min_cycle;Max_cycle;Signal;HPM_P1;HPM_P2
2023/12/29 00:02:17;;;;;;;5.53;1.10;;;15.10;61.90;16.40;100461.00;;;;5043637;28;20206;-72
2023/12/29 00:04:46;;;;;;;3.42;0.98;;;15.00;61.90;16.40;100460.00;;;;5032291;28;20400;-73
2023/12/29 00:07:13;;;;;;;9.10;1.35;;;15.10;61.90;16.40;100459.00;;;;5030881;28;20224;-72
2023/12/29 00:09:41;;;;;;;4.07;1.02;;;15.10;62.00;16.40;100462.00;;;;5032058;28;20200;-72
2023/12/29 00:12:09;;;;;;;4.97;1.08;;;15.10;62.00;16.40;100460.00;;;;5031114;28;20708;-71
2023/12/29 00:14:39;;;;;;;3.70;0.77;;;15.10;62.10;16.40;100439.00;;;;5031140;28;20287;-73
2023/12/29 00:17:06;;;;;;;4.97;1.42;;;15.10;62.30;16.40;100446.00;;;;5031562;28;20215;-73
2023/12/29 00:19:33;;;;;;;7.20;1.10;;;15.10;62.60;16.30;100443.00;;;;5033937;28;20287;-73
2023/12/29 00:22:02;;;;;;;7.05;1.55;;;15.00;62.50;16.30;100432.00;;;;5038201;28;20204;-74
2023/12/29 00:24:31;;;;;;;5.07;1.50;;;15.00;62.50;16.30;100428.00;;;;5030874;28;20208;-72
2023/12/29 00:26:58;;;;;;;4.03;1.13;;;15.00;62.60;16.20;100454.00;;;;5031520;28;20192;-73
2023/12/29 00:29:27;;;;;;;3.88;1.08;;;14.90;62.50;16.20;100441.00;;;;5028426;28;20189;-72
2023/12/29 00:31:54;;;;;;;6.55;1.35;;;14.90;62.70;16.20;100440.00;;;;5032840;28;20325;-73
2023/12/29 00:34:21;;;;;;;7.65;1.42;;;14.80;62.70;16.20;100443.00;;;;5034663;28;20196;-73
2023/12/29 00:36:50;;;;;;;6.22;1.30;;;14.80;62.70;16.20;100451.00;;;;5034522;28;20189;-72
2023/12/29 00:39:18;;;;;;;5.93;1.13;;;14.80;62.90;16.20;100476.00;;;;5034542;28;20188;-73
2023/12/29 00:41:45;;;;;;;8.73;1.83;;;14.80;62.90;16.20;100432.00;;;;5034134;28;20231;-73
2023/12/29 00:44:12;;;;;;;4.90;1.50;;;14.80;62.90;16.20;100430.00;;;;5034517;28;20192;-74
2023/12/29 00:46:39;;;;;;;7.05;1.30;;;14.80;62.90;16.10;100428.00;;;;5034341;28;20204;-73
2023/12/29 00:49:06;;;;;;;7.57;1.23;;;14.80;62.90;16.20;100419.00;;;;5034560;28;20757;-74
2023/12/29 00:51:33;;;;;;;4.78;1.13;;;14.80;63.00;16.20;100408.00;;;;5033484;28;20189;-72
2023/12/29 00:54:00;;;;;;;3.92;0.63;;;14.80;62.90;16.20;100419.00;;;;5034088;28;20216;-73
2023/12/29 00:56:28;;;;;;;3.67;1.35;;;14.80;62.90;16.20;100418.00;;;;5034717;28;20199;-72
2023/12/29 00:58:55;;;;;;;7.80;1.48;;;14.80;62.90;16.20;100420.00;;;;5034259;28;20287;-73
2023/12/29 01:01:22;;;;;;;4.70;1.00;;;14.80;62.90;16.30;100399.00;;;;5034441;28;20192;-73
2023/12/29 01:03:49;;;;;;;6.90;1.13;;;14.80;62.80;16.30;100419.00;;;;5034321;28;20200;-72
2023/12/29 01:06:16;;;;;;;4.55;1.08;;;14.80;62.70;16.30;100416.00;;;;5033854;28;20315;-72
2023/12/29 01:08:43;;;;;;;5.32;1.48;;;14.90;62.80;16.30;100415.00;;;;5033875;28;20198;-72
2023/12/29 01:11:11;;;;;;;8.32;1.25;;;14.90;62.80;16.30;100415.00;;;;5034217;28;20196;-72
2023/12/29 01:13:39;;;;;;;3.75;0.80;;;14.90;62.80;16.30;100402.00;;;;5033693;28;20685;-71
2023/12/29 01:16:07;;;;;;;7.90;1.45;;;14.90;62.80;16.30;100435.00;;;;5033347;28;20274;-72
2023/12/29 01:18:34;;;;;;;6.75;1.48;;;14.90;62.80;16.30;100414.00;;;;5033956;28;20201;-72
2023/12/29 01:21:01;;;;;;;6.65;1.65;;;14.90;62.80;16.30;100403.00;;;;5033560;28;20199;-73
2023/12/29 01:23:28;;;;;;;4.88;1.33;;;14.90;62.80;16.30;100417.00;;;;5033424;28;20199;-73
2023/12/29 01:25:55;;;;;;;3.03;0.85;;;14.90;62.80;16.30;100421.00;;;;5034364;28;20204;-72
2023/12/29 01:28:22;;;;;;;3.75;0.95;;;14.90;62.80;16.30;100408.00;;;;5031962;28;20193;-73
2023/12/29 01:30:50;;;;;;;7.60;1.20;;;14.90;62.80;16.30;100402.00;;;;5032947;28;20199;-73
2023/12/29 01:33:17;;;;;;;3.63;1.20;;;15.00;62.80;16.30;100418.00;;;;5033088;28;20224;-73
2023/12/29 01:35:44;;;;;;;5.65;1.70;;;14.90;62.70;16.30;100390.00;;;;5033590;28;20200;-72
2023/12/29 01:38:11;;;;;;;5.25;1.27;;;14.90;62.70;16.30;100394.00;;;;5033137;28;20206;-73
2023/12/29 01:40:45;;;;;;;6.30;0.88;;;14.90;62.70;16.20;100377.00;;;;5033059;28;20204;-73
2023/12/29 01:43:12;;;;;;;7.18;1.38;;;14.90;62.70;16.30;100392.00;;;;5032650;28;20211;-75
2023/12/29 01:45:39;;;;;;;5.03;1.45;;;14.90;62.70;16.30;100381.00;;;;5033873;28;20202;-72
2023/12/29 01:48:10;;;;;;;7.88;1.63;;;14.90;62.60;16.20;100383.00;;;;5033603;28;20567;-73
2023/12/29 01:50:37;;;;;;;4.45;1.40;;;14.90;62.60;16.20;100390.00;;;;5032831;28;20196;-72
2023/12/29 01:53:06;;;;;;;3.63;1.20;;;14.90;62.60;16.20;100385.00;;;;5032613;28;20225;-73
2023/12/29 01:55:34;;;;;;;5.88;1.75;;;14.90;62.70;16.20;100395.00;;;;5032639;28;20279;-72
2023/12/29 01:58:03;;;;;;;4.13;0.80;;;14.90;62.70;16.20;100403.00;;;;5032328;28;20204;-73
2023/12/29 02:00:31;;;;;;;3.42;1.05;;;14.90;62.70;16.20;100418.00;;;;5031995;28;20505;-72
2023/12/29 02:02:59;;;;;;;7.35;1.48;;;14.90;62.80;16.20;100415.00;;;;5032786;28;20661;-73
2023/12/29 02:05:31;;;;;;;4.25;1.17;;;14.90;62.80;16.20;100407.00;;;;5032490;28;20201;-72
2023/12/29 02:07:59;;;;;;;3.75;0.88;;;14.80;62.90;16.20;100409.00;;;;5036667;28;20198;-71
2023/12/29 02:10:26;;;;;;;6.97;1.40;;;14.90;63.10;16.20;100410.00;;;;5049792;28;20206;-72
2023/12/29 02:12:57;;;;;;;4.85;1.33;;;14.80;63.00;16.20;100434.00;;;;5040170;28;20231;-72
2023/12/29 02:15:24;;;;;;;7.22;1.52;;;14.80;63.10;16.20;100399.00;;;;5044859;28;20188;-71
2023/12/29 02:18:02;;;;;;;5.88;1.45;;;14.80;63.10;16.00;100419.00;;;;5052996;28;20214;-72
2023/12/29 02:20:31;;;;;;;4.85;0.85;;;14.80;63.20;16.10;100420.00;;;;5045805;28;20311;-71
2023/12/29 02:22:58;;;;;;;7.07;1.35;;;14.80;63.20;16.10;100424.00;;;;5030938;28;20287;-71
2023/12/29 02:25:27;;;;;;;2.53;1.00;;;14.70;63.30;16.10;100418.00;;;;5032908;28;20211;-73
2023/12/29 02:28:02;;;;;;;6.65;1.33;;;14.70;63.30;16.00;100430.00;;;;5034725;28;20306;-71
2023/12/29 02:30:39;;;;;;;6.55;1.45;;;14.70;63.50;15.90;100420.00;;;;5030604;28;20697;-72
2023/12/29 02:33:11;;;;;;;5.22;1.40;;;14.70;63.50;16.00;100430.00;;;;5040987;28;20714;-73
2023/12/29 02:35:44;;;;;;;4.03;1.10;;;14.70;63.60;16.00;100421.00;;;;5041853;28;20641;-71
2023/12/29 02:38:12;;;;;;;6.15;1.40;;;14.70;63.70;16.00;100429.00;;;;5031759;28;20624;-72
2023/12/29 02:40:41;;;;;;;4.00;1.73;;;14.60;63.70;15.90;100421.00;;;;5037510;28;20474;-71
2023/12/29 02:43:09;;;;;;;5.47;1.17;;;14.60;64.00;15.90;100415.00;;;;5040654;28;20298;-72
2023/12/29 02:45:37;;;;;;;4.45;1.13;;;14.60;64.00;15.90;100409.00;;;;5037443;28;20299;-72
2023/12/29 02:48:04;;;;;;;3.90;1.15;;;14.60;64.80;15.90;100401.00;;;;5038541;28;20206;-72
2023/12/29 02:50:31;;;;;;;2.45;0.90;;;14.60;64.30;15.90;100408.00;;;;5044488;28;20196;-72
2023/12/29 02:52:58;;;;;;;6.07;1.67;;;14.50;64.30;15.90;100419.00;;;;5050496;28;20227;-72
2023/12/29 02:55:25;;;;;;;6.65;1.30;;;14.50;64.50;15.80;100407.00;;;;5044075;28;20579;-72
2023/12/29 02:57:54;;;;;;;7.10;1.35;;;14.50;64.60;15.80;100400.00;;;;5044003;28;20197;-72
2023/12/29 03:00:21;;;;;;;3.78;1.00;;;14.40;64.60;15.80;100401.00;;;;5044901;28;20275;-73
2023/12/29 03:02:48;;;;;;;4.13;1.00;;;14.40;65.40;15.70;100412.00;;;;5050179;28;20202;-72
2023/12/29 03:05:15;;;;;;;7.35;1.33;;;14.40;64.90;15.70;100412.00;;;;5047338;28;20196;-72
2023/12/29 03:07:43;;;;;;;5.07;1.40;;;14.30;64.90;15.70;100422.00;;;;5043599;28;20237;-71
2023/12/29 03:10:10;;;;;;;8.68;1.20;;;14.30;65.00;15.60;100414.00;;;;5042225;28;20196;-72
2023/12/29 03:12:38;;;;;;;3.97;1.10;;;14.30;65.00;15.60;100415.00;;;;5049537;28;20215;-71
2023/12/29 03:15:07;;;;;;;6.32;1.48;;;14.30;65.10;15.60;100416.00;;;;5031753;28;20259;-72
2023/12/29 03:17:34;;;;;;;7.60;1.60;;;14.30;65.30;15.60;100432.00;;;;5031050;28;20192;-71
2023/12/29 03:20:04;;;;;;;6.90;1.40;;;14.20;65.10;15.60;100428.00;;;;5031682;28;20698;-72
2023/12/29 03:22:31;;;;;;;8.65;1.55;;;14.20;65.20;15.60;100429.00;;;;5030454;28;20196;-72
2023/12/29 03:24:58;;;;;;;7.15;1.27;;;14.20;65.20;15.60;100412.00;;;;5030154;28;20573;-72
2023/12/29 03:27:25;;;;;;;7.38;1.58;;;14.20;65.30;15.50;100418.00;;;;5023798;28;20200;-72
2023/12/29 03:29:52;;;;;;;5.88;1.23;;;14.20;65.40;15.50;100419.00;;;;5031481;28;20193;-72
2023/12/29 03:32:21;;;;;;;6.20;1.75;;;14.20;66.10;15.50;100414.00;;;;5032019;28;20226;-72
2023/12/29 03:34:48;;;;;;;4.55;1.20;;;14.20;65.40;15.50;100412.00;;;;5031699;28;20228;-71
2023/12/29 03:37:15;;;;;;;6.78;1.08;;;14.20;65.40;15.50;100406.00;;;;5030012;28;20207;-72
2023/12/29 03:39:42;;;;;;;5.47;1.30;;;14.10;65.30;15.50;100419.00;;;;5031148;28;20232;-71
2023/12/29 03:42:09;;;;;;;9.77;1.95;;;14.10;65.60;15.50;100421.00;;;;5031584;28;20196;-72
2023/12/29 03:44:36;;;;;;;5.22;1.17;;;14.10;65.50;15.50;100414.00;;;;5031381;28;20680;-71
2023/12/29 03:47:03;;;;;;;7.43;1.77;;;14.10;65.60;15.50;100418.00;;;;5031694;28;20196;-71
2023/12/29 03:49:34;;;;;;;4.47;1.30;;;14.10;65.70;15.50;100419.00;;;;5031405;28;20204;-71
2023/12/29 03:52:01;;;;;;;8.18;1.27;;;14.10;65.70;15.50;100411.00;;;;5031472;28;20192;-72
2023/12/29 03:54:28;;;;;;;6.28;1.08;;;14.10;65.70;15.50;100415.00;;;;5031065;28;20228;-72
2023/12/29 03:56:55;;;;;;;4.32;1.20;;;14.10;65.80;15.50;100406.00;;;;5031368;28;20189;-73
2023/12/29 03:59:22;;;;;;;4.95;1.20;;;14.10;65.90;15.50;100412.00;;;;5031111;28;20279;-72
2023/12/29 04:01:49;;;;;;;6.03;1.35;;;14.10;66.00;15.50;100402.00;;;;5031364;28;20201;-72
2023/12/29 04:04:16;;;;;;;3.80;0.95;;;14.10;66.00;15.50;100389.00;;;;5031923;28;20204;-72
2023/12/29 04:06:44;;;;;;;9.50;1.35;;;14.10;66.00;15.50;100392.00;;;;5032625;28;20240;-72
2023/12/29 04:09:11;;;;;;;6.40;1.40;;;14.10;66.00;15.50;100400.00;;;;5034479;28;20197;-72
2023/12/29 04:11:38;;;;;;;7.68;1.60;;;14.10;66.10;15.50;100396.00;;;;5034033;28;20198;-72
2023/12/29 04:14:05;;;;;;;4.53;1.23;;;14.10;66.20;15.50;100384.00;;;;5035172;28;20229;-71
2023/12/29 04:16:32;;;;;;;4.38;1.35;;;14.00;66.10;15.50;100380.00;;;;5033794;28;20198;-71
2023/12/29 04:18:59;;;;;;;3.40;1.38;;;14.00;66.20;15.50;100396.00;;;;5039626;28;20218;-71
2023/12/29 04:21:26;;;;;;;7.25;1.60;;;14.00;66.20;15.50;100387.00;;;;5037685;28;20198;-72
2023/12/29 04:23:55;;;;;;;7.35;1.73;;;14.00;66.20;15.40;100387.00;;;;5034809;28;20204;-71
2023/12/29 04:26:22;;;;;;;7.28;1.27;;;14.00;66.20;15.50;100385.00;;;;5034326;28;20211;-71
2023/12/29 04:28:49;;;;;;;9.00;1.85;;;14.00;66.20;15.40;100394.00;;;;5024970;28;20231;-72
2023/12/29 04:31:16;;;;;;;4.15;1.23;;;14.00;66.30;15.40;100400.00;;;;5014883;28;20219;-72
2023/12/29 04:33:43;;;;;;;11.20;1.83;;;14.00;66.30;15.40;100401.00;;;;5014869;28;20228;-71
2023/12/29 04:36:10;;;;;;;8.05;1.73;;;14.00;66.20;15.40;100400.00;;;;5030292;28;20290;-71
2023/12/29 04:38:37;;;;;;;12.48;1.45;;;14.00;66.20;15.40;100404.00;;;;5032394;28;20208;-72
2023/12/29 04:41:07;;;;;;;6.85;1.73;;;14.00;66.20;15.40;100417.00;;;;5033406;28;20200;-71
2023/12/29 04:43:34;;;;;;;7.93;1.70;;;14.00;66.30;15.40;100407.00;;;;5034104;28;20246;-71
2023/12/29 04:46:01;;;;;;;9.50;2.55;;;14.00;66.30;15.40;100405.00;;;;5034545;28;20618;-71
2023/12/29 04:48:28;;;;;;;10.55;2.10;;;14.00;66.20;15.40;100402.00;;;;5034141;28;20208;-71
2023/12/29 04:50:56;;;;;;;7.15;1.90;;;14.00;66.30;15.40;100417.00;;;;5034466;28;20200;-72
2023/12/29 04:53:23;;;;;;;8.60;1.30;;;14.00;66.10;15.40;100400.00;;;;5034169;28;20227;-71
2023/12/29 04:55:50;;;;;;;4.25;1.75;;;14.00;66.10;15.40;100408.00;;;;5034053;28;20210;-72
2023/12/29 04:58:18;;;;;;;9.00;1.55;;;14.00;66.10;15.30;100401.00;;;;5033929;28;20669;-71
2023/12/29 05:00:45;;;;;;;8.18;1.98;;;13.90;66.10;15.40;100408.00;;;;5034019;28;20279;-71
2023/12/29 05:03:12;;;;;;;5.45;1.73;;;13.90;66.00;15.40;100399.00;;;;5034126;28;20215;-72
2023/12/29 05:05:39;;;;;;;10.32;1.98;;;14.00;66.20;15.40;100404.00;;;;5033952;28;20192;-71
2023/12/29 05:08:07;;;;;;;6.43;1.38;;;13.90;66.20;15.40;100397.00;;;;5033609;28;20188;-71
2023/12/29 05:10:34;;;;;;;8.80;1.75;;;13.90;66.10;15.40;100390.00;;;;5033614;28;20275;-71
2023/12/29 05:13:01;;;;;;;6.30;1.27;;;14.00;66.20;15.40;100400.00;;;;5033705;28;20684;-71
2023/12/29 05:15:29;;;;;;;6.55;1.00;;;14.00;66.20;15.30;100390.00;;;;5033417;28;20287;-72
2023/12/29 05:17:56;;;;;;;6.82;1.52;;;13.90;66.20;15.40;100391.00;;;;5031888;28;20693;-72
2023/12/29 05:20:23;;;;;;;6.93;1.02;;;13.90;66.10;15.40;100394.00;;;;5032951;28;20206;-71
2023/12/29 05:22:50;;;;;;;5.03;1.65;;;13.90;66.00;15.40;100402.00;;;;5033052;28;20276;-71
2023/12/29 05:25:17;;;;;;;7.03;1.65;;;13.90;66.10;15.40;100398.00;;;;5033769;28;20658;-71
2023/12/29 05:27:45;;;;;;;5.30;1.02;;;13.90;66.10;15.40;100405.00;;;;5033656;28;20220;-72
2023/12/29 05:30:14;;;;;;;5.80;1.17;;;14.00;66.20;15.40;100412.00;;;;5030629;28;20283;-72
2023/12/29 05:32:42;;;;;;;10.40;1.95;;;13.90;66.80;15.40;100395.00;;;;5021961;28;20200;-74
2023/12/29 05:35:10;;;;;;;8.35;1.27;;;13.90;66.20;15.40;100400.00;;;;5023614;28;20315;-72
2023/12/29 05:37:37;;;;;;;10.63;1.88;;;13.90;66.10;15.40;100386.00;;;;5035739;28;20196;-71
2023/12/29 05:40:05;;;;;;;8.57;1.40;;;13.90;66.10;15.40;100390.00;;;;5031545;28;20197;-71
2023/12/29 05:42:32;;;;;;;7.00;1.85;;;14.00;66.10;15.40;100399.00;;;;5039060;28;20196;-71
2023/12/29 05:44:59;;;;;;;7.63;2.15;;;14.00;66.10;15.40;100386.00;;;;5013196;28;20689;-72
2023/12/29 05:47:25;;;;;;;10.63;1.52;;;14.00;66.10;15.40;100386.00;;;;5048875;28;20289;-73
2023/12/29 05:49:53;;;;;;;7.03;1.60;;;14.00;66.00;15.40;100387.00;;;;5047606;28;20198;-71
2023/12/29 05:52:20;;;;;;;8.38;1.95;;;14.00;66.10;15.40;100383.00;;;;5035228;28;20287;-72
2023/12/29 05:54:47;;;;;;;11.63;1.90;;;14.00;66.10;15.40;100396.00;;;;5032260;28;20216;-71
2023/12/29 05:57:15;;;;;;;5.95;1.45;;;14.00;66.10;15.40;100393.00;;;;5033077;28;20688;-72
2023/12/29 05:59:42;;;;;;;5.32;1.10;;;14.00;66.00;15.40;100387.00;;;;5031492;28;20231;-72
2023/12/29 06:02:09;;;;;;;3.00;0.88;;;14.00;66.00;15.40;100377.00;;;;5033395;28;20268;-71
2023/12/29 06:04:36;;;;;;;10.60;1.90;;;14.00;66.00;15.40;100375.00;;;;5033110;28;20287;-72
2023/12/29 06:07:04;;;;;;;10.32;2.22;;;14.00;66.10;15.40;100395.00;;;;5033370;28;20232;-72
2023/12/29 06:09:31;;;;;;;4.22;0.82;;;14.00;66.00;15.50;100380.00;;;;5031883;28;20206;-71
2023/12/29 06:11:58;;;;;;;7.55;1.58;;;14.00;65.90;15.50;100370.00;;;;5032268;28;20216;-71
2023/12/29 06:14:25;;;;;;;8.25;1.50;;;14.00;65.90;15.50;100369.00;;;;5032007;28;20227;-71
2023/12/29 06:16:53;;;;;;;5.13;1.60;;;14.10;65.90;15.50;100379.00;;;;5032706;28;20196;-72
2023/12/29 06:19:21;;;;;;;8.98;1.60;;;14.10;65.80;15.50;100370.00;;;;5032430;28;20200;-71
2023/12/29 06:21:47;;;;;;;5.93;1.30;;;14.10;65.80;15.50;100365.00;;;;5033057;28;20674;-71
2023/12/29 06:24:16;;;;;;;6.35;2.22;;;14.10;65.70;15.50;100365.00;;;;5032455;28;20207;-72
2023/12/29 06:26:44;;;;;;;6.93;2.28;;;14.10;65.60;15.50;100375.00;;;;5032103;28;20685;-72
2023/12/29 06:29:11;;;;;;;3.83;1.25;;;14.10;65.50;15.50;100379.00;;;;5032267;28;20213;-72
2023/12/29 06:31:41;;;;;;;8.18;1.42;;;14.10;65.50;15.50;100359.00;;;;5032278;28;20196;-71
2023/12/29 06:34:08;;;;;;;7.53;1.40;;;14.10;65.50;15.50;100381.00;;;;5032329;28;20216;-71
2023/12/29 06:36:35;;;;;;;4.07;0.98;;;14.10;65.50;15.50;100378.00;;;;5032430;28;20192;-71
2023/12/29 06:39:03;;;;;;;5.88;1.30;;;14.10;65.50;15.50;100376.00;;;;5030021;28;20207;-72
2023/12/29 06:41:31;;;;;;;9.27;1.65;;;14.10;65.50;15.50;100380.00;;;;5029085;28;20204;-72
2023/12/29 06:43:58;;;;;;;6.30;1.55;;;14.10;65.50;15.60;100375.00;;;;5026966;28;20200;-72
2023/12/29 06:46:25;;;;;;;5.40;1.77;;;14.10;65.50;15.60;100378.00;;;;5032290;28;20215;-71
2023/12/29 06:48:52;;;;;;;9.40;2.10;;;14.10;65.50;15.60;100390.00;;;;5032213;28;20193;-72
2023/12/29 06:51:19;;;;;;;6.47;1.20;;;14.10;65.50;15.60;100387.00;;;;5025437;28;20201;-71
2023/12/29 06:53:47;;;;;;;2.40;1.05;;;14.10;65.50;15.60;100380.00;;;;5012287;28;20674;-72
2023/12/29 06:56:15;;;;;;;6.10;1.25;;;14.20;65.50;15.60;100383.00;;;;5027322;28;20206;-72
2023/12/29 06:58:45;;;;;;;7.85;1.77;;;14.20;66.20;15.60;100386.00;;;;5031994;28;20588;-72
2023/12/29 07:01:12;;;;;;;4.22;1.40;;;14.20;65.50;15.50;100366.00;;;;5031988;28;20624;-72
2023/12/29 07:03:49;;;;;;;2.67;0.90;;;14.20;65.50;15.50;100373.00;;;;5032452;28;20196;-72
2023/12/29 07:06:24;;;;;;;3.72;0.90;;;14.20;65.50;15.50;100374.00;;;;5032197;28;20242;-71
2023/12/29 07:08:51;;;;;;;3.63;1.00;;;14.20;65.50;15.60;100374.00;;;;5032152;28;20192;-72
2023/12/29 07:11:18;;;;;;;3.08;1.23;;;14.20;65.60;15.60;100379.00;;;;5028466;28;20201;-71
2023/12/29 07:13:50;;;;;;;3.20;0.77;;;14.20;65.60;15.50;100375.00;;;;5028318;28;20219;-72
2023/12/29 07:16:19;;;;;;;4.63;1.10;;;14.20;65.60;15.60;100378.00;;;;5012641;28;20271;-71
2023/12/29 07:18:50;;;;;;;4.82;1.52;;;14.20;65.60;15.60;100375.00;;;;5025717;28;20200;-71
2023/12/29 07:21:19;;;;;;;3.30;1.08;;;14.20;65.70;15.60;100379.00;;;;5031820;28;20195;-71
2023/12/29 07:23:47;;;;;;;2.97;0.90;;;14.20;65.70;15.60;100371.00;;;;5031561;28;20693;-71
2023/12/29 07:26:14;;;;;;;6.90;1.00;;;14.20;65.80;15.60;100375.00;;;;5032009;28;20654;-71
2023/12/29 07:28:41;;;;;;;3.25;0.82;;;14.20;65.80;15.60;100375.00;;;;5031431;28;20658;-72
2023/12/29 07:31:10;;;;;;;3.35;0.70;;;14.20;65.80;15.60;100382.00;;;;5031445;28;20218;-71
2023/12/29 07:33:37;;;;;;;3.20;1.10;;;14.10;65.80;15.60;100379.00;;;;5031362;28;20210;-72
2023/12/29 07:36:05;;;;;;;3.60;1.00;;;14.20;65.90;15.60;100388.00;;;;5021915;28;20283;-72
2023/12/29 07:38:32;;;;;;;1.92;0.82;;;14.20;66.00;15.60;100383.00;;;;5014140;28;20201;-72
2023/12/29 07:40:59;;;;;;;5.25;1.38;;;14.20;66.20;15.60;100389.00;;;;5028210;28;20211;-71
2023/12/29 07:43:26;;;;;;;3.03;1.10;;;14.10;66.20;15.60;100393.00;;;;5035416;28;20291;-72
2023/12/29 07:45:53;;;;;;;4.00;0.65;;;14.10;66.30;15.60;100398.00;;;;5035589;28;20204;-72
2023/12/29 07:48:21;;;;;;;2.83;1.02;;;14.10;66.50;15.50;100372.00;;;;5029035;28;20280;-71
2023/12/29 07:50:49;;;;;;;6.45;1.60;;;14.10;66.50;15.60;100375.00;;;;5035483;28;20223;-71
2023/12/29 07:53:16;;;;;;;3.83;1.13;;;14.10;66.50;15.60;100388.00;;;;5035068;28;20208;-72
2023/12/29 07:55:46;;;;;;;4.30;1.20;;;14.10;66.60;15.60;100379.00;;;;5033227;28;20221;-71
2023/12/29 07:58:13;;;;;;;2.88;1.10;;;14.10;66.60;15.60;100383.00;;;;5049037;28;20301;-72
2023/12/29 08:00:40;;;;;;;2.83;0.82;;;14.10;66.60;15.50;100385.00;;;;5028357;28;20805;-72
2023/12/29 08:03:07;;;;;;;3.00;0.95;;;14.10;66.70;15.60;100398.00;;;;5045958;28;20199;-73
2023/12/29 08:05:35;;;;;;;3.97;1.00;;;14.10;66.70;15.50;100393.00;;;;5033678;28;20258;-74
2023/12/29 08:08:02;;;;;;;2.97;1.10;;;14.10;66.80;15.60;100394.00;;;;5031530;28;20295;-73
2023/12/29 08:10:29;;;;;;;2.75;1.15;;;14.10;66.80;15.60;100385.00;;;;5041754;28;20611;-74
2023/12/29 08:12:56;;;;;;;4.45;1.08;;;14.10;66.80;15.60;100388.00;;;;5038966;28;20274;-74
2023/12/29 08:15:23;;;;;;;2.85;1.40;;;14.10;66.90;15.60;100401.00;;;;5035340;28;20242;-72
2023/12/29 08:17:50;;;;;;;2.05;1.17;;;14.10;66.90;15.60;100403.00;;;;5035479;28;20236;-75
2023/12/29 08:20:17;;;;;;;2.53;1.25;;;14.10;67.10;15.60;100395.00;;;;5035419;28;20204;-74
2023/12/29 08:22:45;;;;;;;2.47;0.98;;;14.10;67.10;15.60;100393.00;;;;5037720;28;20214;-73
2023/12/29 08:25:13;;;;;;;3.15;1.25;;;14.10;67.00;15.60;100397.00;;;;5046438;28;20196;-73
2023/12/29 08:27:41;;;;;;;3.13;1.33;;;14.10;67.10;15.60;100398.00;;;;5034687;28;20291;-73
2023/12/29 08:30:09;;;;;;;2.42;1.40;;;14.20;67.10;15.60;100396.00;;;;5031851;28;20200;-73
2023/12/29 08:32:36;;;;;;;4.80;1.58;;;14.10;67.00;15.60;100416.00;;;;5036414;28;20508;-73
2023/12/29 08:35:04;;;;;;;4.47;1.50;;;14.20;67.00;15.60;100394.00;;;;5033197;28;20220;-74
2023/12/29 08:37:33;;;;;;;4.38;1.20;;;14.20;67.00;15.60;100397.00;;;;5034863;28;20613;-73
2023/12/29 08:40:01;;;;;;;4.15;1.33;;;14.20;67.10;15.60;100429.00;;;;5033570;28;20196;-72
2023/12/29 08:42:29;;;;;;;3.20;1.25;;;14.10;67.00;15.60;100418.00;;;;5024440;28;20255;-74
2023/12/29 08:44:56;;;;;;;3.05;0.90;;;14.20;67.20;15.60;100416.00;;;;5018918;28;20207;-73
2023/12/29 08:47:23;;;;;;;2.85;1.20;;;14.20;67.10;15.60;100409.00;;;;5030671;28;20204;-73
2023/12/29 08:49:51;;;;;;;2.17;0.75;;;14.20;67.10;15.60;100412.00;;;;5034564;28;20246;-73
2023/12/29 08:52:18;;;;;;;5.28;1.38;;;14.20;67.10;15.70;100419.00;;;;5034154;28;20197;-73
2023/12/29 08:54:45;;;;;;;4.90;1.30;;;14.20;67.10;15.70;100411.00;;;;5032421;28;20221;-74
2023/12/29 08:57:13;;;;;;;2.28;0.80;;;14.20;67.20;15.60;100407.00;;;;5031615;28;20200;-72
2023/12/29 08:59:40;;;;;;;4.72;0.90;;;14.20;67.20;15.70;100409.00;;;;5030154;28;20200;-73
2023/12/29 09:02:07;;;;;;;4.00;0.85;;;14.20;67.10;15.70;100411.00;;;;5033017;28;20295;-73
2023/12/29 09:04:35;;;;;;;2.65;0.88;;;14.20;67.20;15.70;100409.00;;;;5034600;28;20590;-74
2023/12/29 09:07:04;;;;;;;5.50;1.15;;;14.20;67.10;15.70;100409.00;;;;5031414;28;20350;-74
2023/12/29 09:09:31;;;;;;;1.58;0.70;;;14.20;67.10;15.70;100395.00;;;;5040782;28;20239;-74
2023/12/29 09:11:58;;;;;;;3.33;1.17;;;14.20;67.20;15.70;100415.00;;;;5034954;28;20226;-73
2023/12/29 09:14:26;;;;;;;5.35;1.10;;;14.20;67.10;15.70;100418.00;;;;5034137;28;20702;-73
2023/12/29 09:16:53;;;;;;;3.67;1.23;;;14.20;67.00;15.70;100415.00;;;;5044268;28;20215;-72
2023/12/29 09:19:20;;;;;;;2.10;0.80;;;14.20;67.10;15.70;100417.00;;;;5032941;28;20193;-72
2023/12/29 09:21:48;;;;;;;2.45;0.75;;;14.20;67.20;15.70;100428.00;;;;5032024;28;20188;-72
2023/12/29 09:24:15;;;;;;;4.30;1.10;;;14.30;67.20;15.70;100435.00;;;;5028239;28;20543;-73
2023/12/29 09:26:42;;;;;;;4.43;1.05;;;14.30;67.30;15.70;100427.00;;;;5032978;28;20200;-76
2023/12/29 09:29:09;;;;;;;3.85;1.23;;;14.30;67.30;15.70;100426.00;;;;5032652;28;20654;-73
2023/12/29 09:31:37;;;;;;;1.83;0.70;;;14.30;67.20;15.80;100434.00;;;;5033007;28;20203;-74
2023/12/29 09:34:04;;;;;;;2.00;0.73;;;14.30;67.20;15.80;100432.00;;;;5033434;28;20669;-73
2023/12/29 09:36:31;;;;;;;3.88;0.88;;;14.30;67.20;15.90;100438.00;;;;5033512;28;20255;-73
2023/12/29 09:38:58;;;;;;;3.83;0.90;;;14.40;67.20;15.90;100439.00;;;;5017374;28;20294;-73
2023/12/29 09:41:29;;;;;;;2.35;0.80;;;14.40;67.30;15.90;100446.00;;;;5016996;28;22915;-72
2023/12/29 09:43:58;;;;;;;1.75;0.63;;;14.40;67.30;16.00;100438.00;;;;5041102;28;20196;-73
2023/12/29 09:46:29;;;;;;;3.92;1.48;;;14.50;67.30;15.90;100447.00;;;;5032066;28;20214;-73
2023/12/29 09:49:04;;;;;;;3.00;0.80;;;14.50;67.10;16.00;100452.00;;;;5034060;28;20566;-72
2023/12/29 09:51:32;;;;;;;3.83;0.80;;;14.50;67.10;16.00;100442.00;;;;5020148;28;20207;-72
2023/12/29 09:54:00;;;;;;;4.75;1.00;;;14.60;67.10;16.10;100457.00;;;;5023361;28;20200;-73
2023/12/29 09:56:27;;;;;;;1.98;0.60;;;14.60;67.10;16.10;100454.00;;;;5029561;28;20717;-72
2023/12/29 09:58:57;;;;;;;2.85;1.10;;;14.60;67.00;16.10;100455.00;;;;5033224;28;20634;-73
2023/12/29 10:01:27;;;;;;;1.73;0.65;;;14.60;67.00;16.20;100448.00;;;;5040617;28;20206;-75
2023/12/29 10:03:54;;;;;;;2.45;0.75;;;14.70;67.00;16.20;100449.00;;;;5033502;28;20196;-73
2023/12/29 10:06:26;;;;;;;6.28;1.15;;;14.70;66.90;16.20;100455.00;;;;5034183;28;20230;-74
2023/12/29 10:08:56;;;;;;;5.38;0.95;;;14.70;66.90;16.20;100449.00;;;;5035241;28;20216;-73
2023/12/29 10:11:24;;;;;;;3.88;0.70;;;14.70;66.80;16.30;100452.00;;;;5028215;28;20193;-72
2023/12/29 10:13:56;;;;;;;2.75;0.60;;;14.80;66.90;16.30;100445.00;;;;5037405;28;20598;-72
2023/12/29 10:16:34;;;;;;;1.50;0.70;;;14.80;66.90;16.30;100449.00;;;;5037067;28;20227;-75
2023/12/29 10:19:15;;;;;;;2.70;0.88;;;14.90;67.50;16.30;100450.00;;;;5028106;28;20196;-73
2023/12/29 10:21:58;;;;;;;1.70;1.20;;;14.90;66.70;16.30;100458.00;;;;5029209;28;20673;-73
2023/12/29 10:24:26;;;;;;;2.53;1.00;;;14.90;66.50;16.40;100455.00;;;;5039336;28;20450;-75
2023/12/29 10:26:54;;;;;;;2.78;0.80;;;14.90;66.40;16.40;100438.00;;;;5050385;28;20192;-73
2023/12/29 10:29:21;;;;;;;2.78;1.00;;;15.00;66.40;16.40;100454.00;;;;5021068;28;20204;-72
2023/12/29 10:31:49;;;;;;;2.08;0.68;;;15.00;66.30;16.50;100446.00;;;;5027774;28;20203;-73
2023/12/29 10:34:21;;;;;;;1.90;0.70;;;15.00;66.30;16.50;100444.00;;;;5015395;28;20196;-75
2023/12/29 10:36:50;;;;;;;1.10;0.70;;;15.00;66.30;16.50;100461.00;;;;5040594;28;20224;-74
2023/12/29 10:39:17;;;;;;;1.70;0.55;;;15.10;66.20;16.50;100478.00;;;;5038207;28;20533;-73
2023/12/29 10:41:44;;;;;;;1.63;0.63;;;15.10;66.20;16.50;100464.00;;;;5043830;28;20199;-75
2023/12/29 10:44:11;;;;;;;2.35;0.80;;;15.10;66.10;16.60;100483.00;;;;5036018;28;20204;-73
2023/12/29 10:46:38;;;;;;;1.98;0.85;;;15.10;66.20;16.60;100469.00;;;;5032133;28;20210;-73
2023/12/29 10:49:10;;;;;;;1.42;0.65;;;15.10;66.20;16.60;100465.00;;;;5031795;28;20863;-72
2023/12/29 10:51:38;;;;;;;2.35;0.88;;;15.10;66.00;16.60;100461.00;;;;5033631;28;20222;-73